sensor_id;sensor_type;location;lat;lon;timestamp;P1;durP1;ratioP1;P2;durP2;ratioP2
1991;SDS011;997;48.448;8.924;2022-07-18T03:02:10;4.80;;;4.50;;
1991;SDS011;997;48.448;8.924;2022-07-18T03:04:36;4.50;;;3.90;;
1991;SDS011;997;48.448;8.924;2022-07-18T03:07:02;4.20;;;3.90;;
1991;SDS011;997;48.448;8.924;2022-07-18T03:09:27;4.70;;;3.90;;
1991;SDS011;997;48.448;8.924;2022-07-18T03:11:54;4.03;;;3.73;;
1991;SDS011;997;48.448;8.924;2022-07-18T03:14:21;3.70;;;3.50;;
1991;SDS011;997;48.448;8.924;2022-07-18T03:16:48;4.60;;;4.30;;
1991;SDS011;997;48.448;8.924;2022-07-18T03:19:13;4.33;;;4.03;;
1991;SDS011;997;48.448;8.924;2022-07-18T03:21:39;4.13;;;3.83;;
1991;SDS011;997;48.448;8.924;2022-07-18T03:24:05;4.37;;;3.97;;
1991;SDS011;997;48.448;8.924;2022-07-18T03:26:30;5.60;;;4.30;;
1991;SDS011;997;48.448;8.924;2022-07-18T03:28:56;7.87;;;4.43;;
1991;SDS011;997;48.448;8.924;2022-07-18T03:31:22;4.17;;;3.87;;
1991;SDS011;997;48.448;8.924;2022-07-18T03:33:48;4.57;;;4.27;;
1991;SDS011;997;48.448;8.924;2022-07-18T03:36:14;7.67;;;4.30;;
1991;SDS011;997;48.448;8.924;2022-07-18T03:38:39;5.30;;;4.10;;
1991;SDS011;997;48.448;8.924;2022-07-18T03:41:08;4.70;;;4.20;;
1991;SDS011;997;48.448;8.924;2022-07-18T03:43:35;3.90;;;3.53;;
1991;SDS011;997;48.448;8.924;2022-07-18T03:46:04;5.10;;;4.70;;
1991;SDS011;997;48.448;8.924;2022-07-18T03:48:30;5.17;;;4.70;;
1991;SDS011;997;48.448;8.924;2022-07-18T03:50:56;4.07;;;3.77;;
1991;SDS011;997;48.448;8.924;2022-07-18T03:53:22;4.03;;;3.83;;
1991;SDS011;997;48.448;8.924;2022-07-18T03:55:48;4.70;;;4.40;;
1991;SDS011;997;48.448;8.924;2022-07-18T03:58:13;4.87;;;4.47;;
1991;SDS011;997;48.448;8.924;2022-07-18T04:00:39;4.70;;;4.03;;
1991;SDS011;997;48.448;8.924;2022-07-18T04:03:05;4.20;;;3.90;;
1991;SDS011;997;48.448;8.924;2022-07-18T04:05:31;4.83;;;4.10;;
1991;SDS011;997;48.448;8.924;2022-07-18T04:07:57;3.67;;;3.37;;
1991;SDS011;997;48.448;8.924;2022-07-18T04:10:22;6.53;;;3.97;;
1991;SDS011;997;48.448;8.924;2022-07-18T04:12:49;4.20;;;3.90;;
1991;SDS011;997;48.448;8.924;2022-07-18T04:15:17;4.50;;;4.10;;
1991;SDS011;997;48.448;8.924;2022-07-18T04:17:44;4.60;;;4.30;;
1991;SDS011;997;48.448;8.924;2022-07-18T04:20:10;4.20;;;3.77;;
1991;SDS011;997;48.448;8.924;2022-07-18T04:22:53;3.80;;;3.40;;
1991;SDS011;997;48.448;8.924;2022-07-18T04:25:24;3.80;;;3.50;;
1991;SDS011;997;48.448;8.924;2022-07-18T04:27:53;4.50;;;4.20;;
1991;SDS011;997;48.448;8.924;2022-07-18T04:30:21;4.47;;;4.17;;
1991;SDS011;997;48.448;8.924;2022-07-18T04:32:48;3.90;;;3.60;;
1991;SDS011;997;48.448;8.924;2022-07-18T04:35:14;4.20;;;3.90;;
1991;SDS011;997;48.448;8.924;2022-07-18T04:37:40;4.57;;;4.27;;
1991;SDS011;997;48.448;8.924;2022-07-18T04:40:07;5.50;;;5.10;;
1991;SDS011;997;48.448;8.924;2022-07-18T04:42:34;4.30;;;3.70;;
1991;SDS011;997;48.448;8.924;2022-07-18T04:44:59;5.33;;;4.80;;
1991;SDS011;997;48.448;8.924;2022-07-18T04:47:26;4.20;;;3.63;;
1991;SDS011;997;48.448;8.924;2022-07-18T04:49:53;4.50;;;4.20;;
1991;SDS011;997;48.448;8.924;2022-07-18T04:52:19;5.33;;;4.83;;
1991;SDS011;997;48.448;8.924;2022-07-18T04:54:45;4.70;;;4.30;;
1991;SDS011;997;48.448;8.924;2022-07-18T04:57:11;4.37;;;4.07;;
1991;SDS011;997;48.448;8.924;2022-07-18T04:59:39;4.27;;;3.97;;
1991;SDS011;997;48.448;8.924;2022-07-18T05:02:08;5.40;;;5.00;;
1991;SDS011;997;48.448;8.924;2022-07-18T05:04:34;5.23;;;4.83;;
1991;SDS011;997;48.448;8.924;2022-07-18T05:07:00;4.60;;;4.20;;
1991;SDS011;997;48.448;8.924;2022-07-18T05:09:26;4.20;;;3.97;;
1991;SDS011;997;48.448;8.924;2022-07-18T05:11:53;4.80;;;4.50;;
1991;SDS011;997;48.448;8.924;2022-07-18T05:14:19;4.67;;;4.20;;
1991;SDS011;997;48.448;8.924;2022-07-18T05:16:46;3.53;;;3.33;;
1991;SDS011;997;48.448;8.924;2022-07-18T05:19:12;4.50;;;4.20;;
1991;SDS011;997;48.448;8.924;2022-07-18T05:21:37;4.57;;;4.17;;
1991;SDS011;997;48.448;8.924;2022-07-18T05:24:03;4.33;;;4.03;;
1991;SDS011;997;48.448;8.924;2022-07-18T05:26:29;4.37;;;4.00;;
1991;SDS011;997;48.448;8.924;2022-07-18T05:28:55;4.43;;;4.13;;
1991;SDS011;997;48.448;8.924;2022-07-18T05:31:20;4.70;;;4.40;;
1991;SDS011;997;48.448;8.924;2022-07-18T05:33:46;5.33;;;4.10;;
1991;SDS011;997;48.448;8.924;2022-07-18T05:36:12;4.77;;;4.47;;
1991;SDS011;997;48.448;8.924;2022-07-18T05:38:37;8.90;;;5.83;;
1991;SDS011;997;48.448;8.924;2022-07-18T05:41:03;4.93;;;4.53;;
1991;SDS011;997;48.448;8.924;2022-07-18T05:43:29;4.63;;;4.23;;
1991;SDS011;997;48.448;8.924;2022-07-18T05:45:54;4.07;;;3.77;;
1991;SDS011;997;48.448;8.924;2022-07-18T05:48:20;5.73;;;5.30;;
1991;SDS011;997;48.448;8.924;2022-07-18T05:50:46;4.07;;;3.60;;
1991;SDS011;997;48.448;8.924;2022-07-18T05:53:12;4.60;;;4.30;;
1991;SDS011;997;48.448;8.924;2022-07-18T05:55:37;4.97;;;4.57;;
1991;SDS011;997;48.448;8.924;2022-07-18T05:58:03;4.40;;;4.10;;
1991;SDS011;997;48.448;8.924;2022-07-18T06:00:29;4.00;;;3.70;;
1991;SDS011;997;48.448;8.924;2022-07-18T06:02:55;3.80;;;3.50;;
1991;SDS011;997;48.448;8.924;2022-07-18T06:05:21;5.23;;;4.83;;
1991;SDS011;997;48.448;8.924;2022-07-18T06:07:47;4.83;;;4.33;;
1991;SDS011;997;48.448;8.924;2022-07-18T06:10:13;4.17;;;3.87;;
1991;SDS011;997;48.448;8.924;2022-07-18T06:12:39;4.83;;;3.70;;
1991;SDS011;997;48.448;8.924;2022-07-18T06:15:05;3.60;;;3.40;;
1991;SDS011;997;48.448;8.924;2022-07-18T06:17:32;4.03;;;3.73;;
1991;SDS011;997;48.448;8.924;2022-07-18T06:19:58;4.27;;;3.90;;
1991;SDS011;997;48.448;8.924;2022-07-18T06:22:24;4.03;;;3.63;;
1991;SDS011;997;48.448;8.924;2022-07-18T06:24:50;4.20;;;3.80;;
1991;SDS011;997;48.448;8.924;2022-07-18T06:27:17;3.70;;;3.40;;
1991;SDS011;997;48.448;8.924;2022-07-18T06:29:42;4.03;;;3.73;;
1991;SDS011;997;48.448;8.924;2022-07-18T06:32:08;4.60;;;4.30;;
1991;SDS011;997;48.448;8.924;2022-07-18T06:34:34;4.10;;;3.80;;
1991;SDS011;997;48.448;8.924;2022-07-18T06:36:59;4.23;;;3.83;;
1991;SDS011;997;48.448;8.924;2022-07-18T06:39:25;3.73;;;3.53;;
1991;SDS011;997;48.448;8.924;2022-07-18T06:41:51;3.40;;;3.07;;
1991;SDS011;997;48.448;8.924;2022-07-18T06:44:17;4.07;;;3.77;;
1991;SDS011;997;48.448;8.924;2022-07-18T06:46:43;3.43;;;3.23;;
1991;SDS011;997;48.448;8.924;2022-07-18T06:49:08;4.07;;;3.77;;
1991;SDS011;997;48.448;8.924;2022-07-18T06:51:34;3.30;;;3.10;;
1991;SDS011;997;48.448;8.924;2022-07-18T06:54:00;4.10;;;3.77;;
1991;SDS011;997;48.448;8.924;2022-07-18T06:56:26;3.33;;;3.13;;
1991;SDS011;997;48.448;8.924;2022-07-18T06:58:52;3.70;;;3.40;;
1991;SDS011;997;48.448;8.924;2022-07-18T07:01:19;3.50;;;3.20;;
1991;SDS011;997;48.448;8.924;2022-07-18T07:03:45;3.50;;;3.20;;
1991;SDS011;997;48.448;8.924;2022-07-18T07:06:12;3.40;;;3.10;;
1991;SDS011;997;48.448;8.924;2022-07-18T07:08:40;2.90;;;2.70;;
1991;SDS011;997;48.448;8.924;2022-07-18T07:11:06;3.10;;;2.80;;
1991;SDS011;997;48.448;8.924;2022-07-18T07:13:32;3.10;;;2.80;;
1991;SDS011;997;48.448;8.924;2022-07-18T07:15:58;3.13;;;2.83;;
1991;SDS011;997;48.448;8.924;2022-07-18T07:18:24;3.17;;;2.80;;
1991;SDS011;997;48.448;8.924;2022-07-18T07:20:52;3.20;;;3.00;;
1991;SDS011;997;48.448;8.924;2022-07-18T07:23:18;3.30;;;2.87;;
1991;SDS011;997;48.448;8.924;2022-07-18T07:25:43;3.43;;;3.13;;
1991;SDS011;997;48.448;8.924;2022-07-18T07:28:09;3.10;;;2.80;;
1991;SDS011;997;48.448;8.924;2022-07-18T07:30:35;3.10;;;2.80;;
1991;SDS011;997;48.448;8.924;2022-07-18T07:33:01;3.73;;;3.43;;
1991;SDS011;997;48.448;8.924;2022-07-18T07:35:27;3.30;;;3.10;;
1991;SDS011;997;48.448;8.924;2022-07-18T07:37:54;4.10;;;3.00;;
1991;SDS011;997;48.448;8.924;2022-07-18T07:40:23;3.70;;;2.97;;
1991;SDS011;997;48.448;8.924;2022-07-18T07:42:51;3.20;;;2.57;;
1991;SDS011;997;48.448;8.924;2022-07-18T07:45:17;3.30;;;2.93;;
1991;SDS011;997;48.448;8.924;2022-07-18T07:47:44;3.23;;;3.03;;
1991;SDS011;997;48.448;8.924;2022-07-18T07:50:11;3.00;;;2.70;;
1991;SDS011;997;48.448;8.924;2022-07-18T07:52:37;3.40;;;3.20;;
1991;SDS011;997;48.448;8.924;2022-07-18T07:55:04;3.17;;;2.97;;
1991;SDS011;997;48.448;8.924;2022-07-18T07:57:31;3.03;;;2.83;;
1991;SDS011;997;48.448;8.924;2022-07-18T07:59:57;3.40;;;3.10;;
1991;SDS011;997;48.448;8.924;2022-07-18T08:02:23;4.27;;;3.93;;
1991;SDS011;997;48.448;8.924;2022-07-18T08:04:49;10.63;;;4.17;;
1991;SDS011;997;48.448;8.924;2022-07-18T08:07:15;3.53;;;3.10;;
1991;SDS011;997;48.448;8.924;2022-07-18T08:09:41;3.30;;;3.10;;
1991;SDS011;997;48.448;8.924;2022-07-18T08:12:07;4.00;;;3.63;;
1991;SDS011;997;48.448;8.924;2022-07-18T08:14:32;4.93;;;3.10;;
1991;SDS011;997;48.448;8.924;2022-07-18T08:17:00;4.97;;;3.63;;
1991;SDS011;997;48.448;8.924;2022-07-18T08:19:25;3.97;;;3.67;;
1991;SDS011;997;48.448;8.924;2022-07-18T08:21:51;5.27;;;2.83;;
1991;SDS011;997;48.448;8.924;2022-07-18T08:24:17;6.97;;;3.50;;
1991;SDS011;997;48.448;8.924;2022-07-18T08:26:42;3.40;;;3.10;;
1991;SDS011;997;48.448;8.924;2022-07-18T08:29:08;2.80;;;2.60;;
1991;SDS011;997;48.448;8.924;2022-07-18T08:31:34;4.77;;;3.70;;
1991;SDS011;997;48.448;8.924;2022-07-18T08:34:00;2.77;;;2.60;;
1991;SDS011;997;48.448;8.924;2022-07-18T08:36:25;4.10;;;3.77;;
1991;SDS011;997;48.448;8.924;2022-07-18T08:38:51;3.10;;;2.90;;
1991;SDS011;997;48.448;8.924;2022-07-18T08:41:17;3.77;;;3.47;;
1991;SDS011;997;48.448;8.924;2022-07-18T08:43:44;3.70;;;3.40;;
1991;SDS011;997;48.448;8.924;2022-07-18T08:46:10;2.90;;;2.67;;
1991;SDS011;997;48.448;8.924;2022-07-18T08:48:37;3.90;;;3.70;;
1991;SDS011;997;48.448;8.924;2022-07-18T08:51:05;3.80;;;3.20;;
1991;SDS011;997;48.448;8.924;2022-07-18T08:53:31;3.47;;;3.27;;
1991;SDS011;997;48.448;8.924;2022-07-18T08:55:59;4.13;;;3.37;;
1991;SDS011;997;48.448;8.924;2022-07-18T08:58:25;5.87;;;2.60;;
1991;SDS011;997;48.448;8.924;2022-07-18T09:00:50;3.10;;;2.90;;
1991;SDS011;997;48.448;8.924;2022-07-18T09:03:16;3.37;;;2.90;;
1991;SDS011;997;48.448;8.924;2022-07-18T09:05:42;4.13;;;3.40;;
1991;SDS011;997;48.448;8.924;2022-07-18T09:10:40;3.43;;;2.90;;
1991;SDS011;997;48.448;8.924;2022-07-18T09:13:13;3.90;;;2.87;;
1991;SDS011;997;48.448;8.924;2022-07-18T09:18:27;2.50;;;2.30;;
1991;SDS011;997;48.448;8.924;2022-07-18T09:20:57;3.67;;;3.10;;
1991;SDS011;997;48.448;8.924;2022-07-18T09:23:32;3.77;;;2.67;;
1991;SDS011;997;48.448;8.924;2022-07-18T09:25:59;7.50;;;3.27;;
1991;SDS011;997;48.448;8.924;2022-07-18T09:28:28;7.70;;;3.10;;
1991;SDS011;997;48.448;8.924;2022-07-18T09:30:55;3.50;;;3.20;;
1991;SDS011;997;48.448;8.924;2022-07-18T09:33:22;2.97;;;2.67;;
1991;SDS011;997;48.448;8.924;2022-07-18T09:38:15;5.23;;;2.70;;
1991;SDS011;997;48.448;8.924;2022-07-18T09:40:46;3.07;;;2.30;;
1991;SDS011;997;48.448;8.924;2022-07-18T09:43:18;4.20;;;2.00;;
1991;SDS011;997;48.448;8.924;2022-07-18T09:45:49;2.67;;;2.47;;
1991;SDS011;997;48.448;8.924;2022-07-18T09:48:18;2.77;;;2.57;;
1991;SDS011;997;48.448;8.924;2022-07-18T09:50:53;8.50;;;2.60;;
1991;SDS011;997;48.448;8.924;2022-07-18T09:53:33;3.30;;;2.80;;
1991;SDS011;997;48.448;8.924;2022-07-18T09:56:04;3.10;;;2.57;;
1991;SDS011;997;48.448;8.924;2022-07-18T09:58:34;3.63;;;2.63;;
1991;SDS011;997;48.448;8.924;2022-07-18T10:01:02;2.77;;;2.07;;
1991;SDS011;997;48.448;8.924;2022-07-18T10:03:30;3.40;;;2.43;;
1991;SDS011;997;48.448;8.924;2022-07-18T10:05:56;2.53;;;2.27;;
1991;SDS011;997;48.448;8.924;2022-07-18T10:08:24;2.30;;;2.20;;
1991;SDS011;997;48.448;8.924;2022-07-18T10:10:52;7.83;;;2.50;;
1991;SDS011;997;48.448;8.924;2022-07-18T10:13:22;2.83;;;2.63;;
1991;SDS011;997;48.448;8.924;2022-07-18T10:15:49;2.20;;;2.00;;
1991;SDS011;997;48.448;8.924;2022-07-18T10:18:16;2.47;;;2.27;;
1991;SDS011;997;48.448;8.924;2022-07-18T10:20:56;2.53;;;2.30;;
1991;SDS011;997;48.448;8.924;2022-07-18T10:36:32;2.57;;;2.37;;
1991;SDS011;997;48.448;8.924;2022-07-18T10:47:10;4.53;;;3.60;;
1991;SDS011;997;48.448;8.924;2022-07-18T10:57:30;2.90;;;2.70;;
1991;SDS011;997;48.448;8.924;2022-07-18T11:21:16;2.40;;;2.20;;
1991;SDS011;997;48.448;8.924;2022-07-18T11:24:03;3.33;;;1.93;;
1991;SDS011;997;48.448;8.924;2022-07-18T11:26:33;2.40;;;2.20;;
1991;SDS011;997;48.448;8.924;2022-07-18T11:29:07;2.80;;;2.60;;
1991;SDS011;997;48.448;8.924;2022-07-18T11:31:51;2.50;;;2.30;;
1991;SDS011;997;48.448;8.924;2022-07-18T11:34:19;3.77;;;2.40;;
1991;SDS011;997;48.448;8.924;2022-07-18T11:36:46;2.90;;;2.60;;
1991;SDS011;997;48.448;8.924;2022-07-18T11:39:13;4.53;;;2.03;;
1991;SDS011;997;48.448;8.924;2022-07-18T11:41:39;4.33;;;3.00;;
1991;SDS011;997;48.448;8.924;2022-07-18T11:44:27;3.07;;;2.87;;
1991;SDS011;997;48.448;8.924;2022-07-18T11:47:10;3.50;;;1.87;;
1991;SDS011;997;48.448;8.924;2022-07-18T11:49:39;2.23;;;2.13;;
1991;SDS011;997;48.448;8.924;2022-07-18T11:52:05;3.20;;;2.40;;
1991;SDS011;997;48.448;8.924;2022-07-18T11:54:34;3.23;;;2.63;;
1991;SDS011;997;48.448;8.924;2022-07-18T11:57:00;3.83;;;2.80;;
1991;SDS011;997;48.448;8.924;2022-07-18T11:59:41;2.50;;;2.13;;
1991;SDS011;997;48.448;8.924;2022-07-18T12:02:10;2.40;;;2.20;;
1991;SDS011;997;48.448;8.924;2022-07-18T12:04:39;2.33;;;2.13;;
1991;SDS011;997;48.448;8.924;2022-07-18T12:09:47;4.17;;;2.60;;
1991;SDS011;997;48.448;8.924;2022-07-18T12:12:14;2.40;;;2.13;;
1991;SDS011;997;48.448;8.924;2022-07-18T12:14:42;3.70;;;2.10;;
1991;SDS011;997;48.448;8.924;2022-07-18T12:17:08;2.67;;;2.10;;
1991;SDS011;997;48.448;8.924;2022-07-18T12:19:34;2.33;;;2.13;;
1991;SDS011;997;48.448;8.924;2022-07-18T12:27:18;2.57;;;2.37;;
1991;SDS011;997;48.448;8.924;2022-07-18T12:35:29;8.23;;;2.40;;
1991;SDS011;997;48.448;8.924;2022-07-18T12:38:04;2.30;;;2.10;;
1991;SDS011;997;48.448;8.924;2022-07-18T12:43:12;2.30;;;2.13;;
1991;SDS011;997;48.448;8.924;2022-07-18T12:45:50;1.93;;;1.83;;
1991;SDS011;997;48.448;8.924;2022-07-18T12:48:17;2.87;;;2.20;;
1991;SDS011;997;48.448;8.924;2022-07-18T12:50:43;3.37;;;2.20;;
1991;SDS011;997;48.448;8.924;2022-07-18T12:53:10;2.13;;;2.00;;
1991;SDS011;997;48.448;8.924;2022-07-18T12:55:36;2.90;;;2.10;;
1991;SDS011;997;48.448;8.924;2022-07-18T12:58:03;2.63;;;2.23;;
1991;SDS011;997;48.448;8.924;2022-07-18T13:00:30;6.33;;;1.80;;
1991;SDS011;997;48.448;8.924;2022-07-18T13:02:57;3.47;;;1.93;;
1991;SDS011;997;48.448;8.924;2022-07-18T13:05:24;2.67;;;2.00;;
1991;SDS011;997;48.448;8.924;2022-07-18T13:07:51;2.10;;;1.90;;
1991;SDS011;997;48.448;8.924;2022-07-18T13:10:17;2.60;;;2.03;;
1991;SDS011;997;48.448;8.924;2022-07-18T13:12:43;2.80;;;2.13;;
1991;SDS011;997;48.448;8.924;2022-07-18T13:15:09;3.57;;;2.40;;
1991;SDS011;997;48.448;8.924;2022-07-18T13:17:35;1.90;;;1.80;;
1991;SDS011;997;48.448;8.924;2022-07-18T13:20:00;2.00;;;1.90;;
1991;SDS011;997;48.448;8.924;2022-07-18T13:22:26;2.10;;;1.80;;
1991;SDS011;997;48.448;8.924;2022-07-18T13:24:52;2.37;;;2.17;;
1991;SDS011;997;48.448;8.924;2022-07-18T13:27:18;1.70;;;1.60;;
1991;SDS011;997;48.448;8.924;2022-07-18T13:29:48;2.73;;;2.53;;
1991;SDS011;997;48.448;8.924;2022-07-18T13:32:14;2.43;;;2.00;;
1991;SDS011;997;48.448;8.924;2022-07-18T13:34:39;2.30;;;1.83;;
1991;SDS011;997;48.448;8.924;2022-07-18T13:37:05;2.03;;;1.80;;
1991;SDS011;997;48.448;8.924;2022-07-18T13:39:31;2.43;;;2.00;;
1991;SDS011;997;48.448;8.924;2022-07-18T13:41:57;2.13;;;1.70;;
1991;SDS011;997;48.448;8.924;2022-07-18T13:44:22;2.63;;;2.17;;
1991;SDS011;997;48.448;8.924;2022-07-18T13:46:48;2.10;;;1.83;;
1991;SDS011;997;48.448;8.924;2022-07-18T13:49:14;3.47;;;2.23;;
1991;SDS011;997;48.448;8.924;2022-07-18T13:51:41;1.50;;;1.40;;
1991;SDS011;997;48.448;8.924;2022-07-18T13:54:07;2.97;;;1.70;;
1991;SDS011;997;48.448;8.924;2022-07-18T13:56:33;2.30;;;2.10;;
1991;SDS011;997;48.448;8.924;2022-07-18T13:58:59;1.73;;;1.63;;
1991;SDS011;997;48.448;8.924;2022-07-18T14:01:25;3.10;;;1.73;;
1991;SDS011;997;48.448;8.924;2022-07-18T14:03:50;4.20;;;1.73;;
1991;SDS011;997;48.448;8.924;2022-07-18T14:06:16;2.30;;;1.90;;
1991;SDS011;997;48.448;8.924;2022-07-18T14:08:42;3.90;;;1.70;;
1991;SDS011;997;48.448;8.924;2022-07-18T14:11:08;2.30;;;1.90;;
1991;SDS011;997;48.448;8.924;2022-07-18T14:13:33;1.83;;;1.73;;
1991;SDS011;997;48.448;8.924;2022-07-18T14:15:59;2.10;;;1.80;;
1991;SDS011;997;48.448;8.924;2022-07-18T14:18:25;1.83;;;1.73;;
1991;SDS011;997;48.448;8.924;2022-07-18T14:20:50;3.93;;;2.50;;
1991;SDS011;997;48.448;8.924;2022-07-18T14:23:16;3.03;;;2.37;;
1991;SDS011;997;48.448;8.924;2022-07-18T14:25:42;2.40;;;2.10;;
1991;SDS011;997;48.448;8.924;2022-07-18T14:28:07;2.60;;;1.73;;
1991;SDS011;997;48.448;8.924;2022-07-18T14:30:33;2.33;;;2.13;;
1991;SDS011;997;48.448;8.924;2022-07-18T14:32:59;2.17;;;1.97;;
1991;SDS011;997;48.448;8.924;2022-07-18T14:35:25;2.40;;;2.20;;
1991;SDS011;997;48.448;8.924;2022-07-18T14:37:51;2.35;;;1.88;;
1991;SDS011;997;48.448;8.924;2022-07-18T14:40:16;2.38;;;2.17;;
1991;SDS011;997;48.448;8.924;2022-07-18T14:42:42;1.75;;;1.65;;
1991;SDS011;997;48.448;8.924;2022-07-18T14:45:08;1.77;;;1.67;;
1991;SDS011;997;48.448;8.924;2022-07-18T14:47:34;2.03;;;1.83;;
1991;SDS011;997;48.448;8.924;2022-07-18T14:50:02;2.22;;;1.80;;
1991;SDS011;997;48.448;8.924;2022-07-18T14:52:28;2.38;;;1.85;;
1991;SDS011;997;48.448;8.924;2022-07-18T14:54:54;2.17;;;2.00;;
1991;SDS011;997;48.448;8.924;2022-07-18T14:57:20;2.35;;;2.25;;
1991;SDS011;997;48.448;8.924;2022-07-18T14:59:46;3.05;;;1.88;;
1991;SDS011;997;48.448;8.924;2022-07-18T15:02:11;2.30;;;2.03;;
1991;SDS011;997;48.448;8.924;2022-07-18T15:04:38;2.80;;;2.00;;
1991;SDS011;997;48.448;8.924;2022-07-18T15:07:04;2.30;;;1.85;;
1991;SDS011;997;48.448;8.924;2022-07-18T15:09:30;1.85;;;1.75;;
1991;SDS011;997;48.448;8.924;2022-07-18T15:11:56;2.95;;;2.67;;
1991;SDS011;997;48.448;8.924;2022-07-18T15:14:22;1.95;;;1.83;;
1991;SDS011;997;48.448;8.924;2022-07-18T15:16:47;2.10;;;1.90;;
1991;SDS011;997;48.448;8.924;2022-07-18T15:19:13;1.95;;;1.85;;
1991;SDS011;997;48.448;8.924;2022-07-18T15:21:39;2.53;;;1.90;;
1991;SDS011;997;48.448;8.924;2022-07-18T15:24:05;2.30;;;1.90;;
1991;SDS011;997;48.448;8.924;2022-07-18T15:26:35;2.40;;;2.30;;
1991;SDS011;997;48.448;8.924;2022-07-18T15:29:01;2.67;;;2.47;;
1991;SDS011;997;48.448;8.924;2022-07-18T15:31:26;3.30;;;2.30;;
1991;SDS011;997;48.448;8.924;2022-07-18T15:33:52;2.30;;;2.10;;
1991;SDS011;997;48.448;8.924;2022-07-18T15:36:18;2.50;;;1.98;;
1991;SDS011;997;48.448;8.924;2022-07-18T15:38:44;4.60;;;1.80;;
1991;SDS011;997;48.448;8.924;2022-07-18T15:41:10;2.30;;;2.00;;
1991;SDS011;997;48.448;8.924;2022-07-18T15:43:36;2.15;;;2.00;;
1991;SDS011;997;48.448;8.924;2022-07-18T15:46:04;2.30;;;2.10;;
1991;SDS011;997;48.448;8.924;2022-07-18T15:48:30;2.00;;;1.90;;
1991;SDS011;997;48.448;8.924;2022-07-18T15:50:56;2.65;;;2.10;;
1991;SDS011;997;48.448;8.924;2022-07-18T15:53:22;2.03;;;1.88;;
1991;SDS011;997;48.448;8.924;2022-07-18T15:55:47;2.55;;;2.40;;
1991;SDS011;997;48.448;8.924;2022-07-18T15:58:13;2.38;;;2.00;;
1991;SDS011;997;48.448;8.924;2022-07-18T16:00:39;1.92;;;1.83;;
1991;SDS011;997;48.448;8.924;2022-07-18T16:03:04;2.20;;;2.00;;
1991;SDS011;997;48.448;8.924;2022-07-18T16:05:30;2.20;;;2.00;;
1991;SDS011;997;48.448;8.924;2022-07-18T16:07:56;3.55;;;2.28;;
1991;SDS011;997;48.448;8.924;2022-07-18T16:10:26;3.28;;;1.98;;
1991;SDS011;997;48.448;8.924;2022-07-18T16:12:52;1.80;;;1.70;;
1991;SDS011;997;48.448;8.924;2022-07-18T16:15:18;4.97;;;2.47;;
1991;SDS011;997;48.448;8.924;2022-07-18T16:17:43;3.28;;;2.30;;
1991;SDS011;997;48.448;8.924;2022-07-18T16:20:09;3.63;;;2.50;;
1991;SDS011;997;48.448;8.924;2022-07-18T16:22:36;2.08;;;1.80;;
1991;SDS011;997;48.448;8.924;2022-07-18T16:25:02;1.77;;;1.67;;
1991;SDS011;997;48.448;8.924;2022-07-18T16:27:28;2.40;;;2.20;;
1991;SDS011;997;48.448;8.924;2022-07-18T16:29:54;4.72;;;2.10;;
1991;SDS011;997;48.448;8.924;2022-07-18T16:32:20;4.22;;;1.95;;
1991;SDS011;997;48.448;8.924;2022-07-18T16:34:45;1.92;;;1.80;;
1991;SDS011;997;48.448;8.924;2022-07-18T16:37:11;2.10;;;1.90;;
1991;SDS011;997;48.448;8.924;2022-07-18T16:39:37;2.33;;;2.22;;
1991;SDS011;997;48.448;8.924;2022-07-18T16:42:02;3.67;;;2.03;;
1991;SDS011;997;48.448;8.924;2022-07-18T16:44:28;3.10;;;2.10;;
1991;SDS011;997;48.448;8.924;2022-07-18T16:46:54;2.55;;;1.85;;
1991;SDS011;997;48.448;8.924;2022-07-18T16:49:20;4.85;;;3.40;;
1991;SDS011;997;48.448;8.924;2022-07-18T16:51:46;2.08;;;1.98;;
1991;SDS011;997;48.448;8.924;2022-07-18T16:54:13;3.83;;;1.90;;
1991;SDS011;997;48.448;8.924;2022-07-18T16:56:39;1.88;;;1.77;;
1991;SDS011;997;48.448;8.924;2022-07-18T16:59:05;2.70;;;1.67;;
1991;SDS011;997;48.448;8.924;2022-07-18T17:01:31;1.75;;;1.65;;
1991;SDS011;997;48.448;8.924;2022-07-18T17:03:59;1.85;;;1.75;;
1991;SDS011;997;48.448;8.924;2022-07-18T17:06:25;2.97;;;2.20;;
1991;SDS011;997;48.448;8.924;2022-07-18T17:08:51;2.35;;;1.98;;
1991;SDS011;997;48.448;8.924;2022-07-18T17:11:17;2.10;;;1.85;;
1991;SDS011;997;48.448;8.924;2022-07-18T17:13:44;1.90;;;1.77;;
1991;SDS011;997;48.448;8.924;2022-07-18T17:16:10;1.98;;;1.80;;
1991;SDS011;997;48.448;8.924;2022-07-18T17:18:35;2.30;;;1.95;;
1991;SDS011;997;48.448;8.924;2022-07-18T17:21:02;2.25;;;2.05;;
1991;SDS011;997;48.448;8.924;2022-07-18T17:23:28;2.47;;;2.03;;
1991;SDS011;997;48.448;8.924;2022-07-18T17:25:55;2.38;;;2.17;;
1991;SDS011;997;48.448;8.924;2022-07-18T17:28:21;4.60;;;2.15;;
1991;SDS011;997;48.448;8.924;2022-07-18T17:30:47;2.65;;;2.45;;
1991;SDS011;997;48.448;8.924;2022-07-18T17:33:13;2.72;;;2.38;;
1991;SDS011;997;48.448;8.924;2022-07-18T17:35:41;2.50;;;2.30;;
1991;SDS011;997;48.448;8.924;2022-07-18T17:38:08;2.60;;;2.20;;
1991;SDS011;997;48.448;8.924;2022-07-18T17:40:39;7.32;;;2.47;;
1991;SDS011;997;48.448;8.924;2022-07-18T17:43:05;2.20;;;2.00;;
1991;SDS011;997;48.448;8.924;2022-07-18T17:45:32;3.05;;;2.00;;
1991;SDS011;997;48.448;8.924;2022-07-18T17:47:58;2.65;;;1.88;;
1991;SDS011;997;48.448;8.924;2022-07-18T17:50:24;2.10;;;1.80;;
1991;SDS011;997;48.448;8.924;2022-07-18T17:52:50;4.40;;;2.27;;
1991;SDS011;997;48.448;8.924;2022-07-18T17:55:16;2.47;;;2.30;;
1991;SDS011;997;48.448;8.924;2022-07-18T17:57:42;1.70;;;1.60;;
1991;SDS011;997;48.448;8.924;2022-07-18T18:00:09;2.73;;;2.23;;
1991;SDS011;997;48.448;8.924;2022-07-18T18:02:35;6.23;;;1.90;;
1991;SDS011;997;48.448;8.924;2022-07-18T18:05:02;6.27;;;1.90;;
1991;SDS011;997;48.448;8.924;2022-07-18T18:07:28;2.67;;;1.87;;
1991;SDS011;997;48.448;8.924;2022-07-18T18:09:54;2.67;;;1.90;;
1991;SDS011;997;48.448;8.924;2022-07-18T18:12:19;2.60;;;2.17;;
1991;SDS011;997;48.448;8.924;2022-07-18T18:14:45;2.17;;;1.93;;
1991;SDS011;997;48.448;8.924;2022-07-18T18:17:12;3.57;;;2.13;;
1991;SDS011;997;48.448;8.924;2022-07-18T18:19:38;2.07;;;1.97;;
1991;SDS011;997;48.448;8.924;2022-07-18T18:22:04;1.83;;;1.73;;
1991;SDS011;997;48.448;8.924;2022-07-18T18:24:30;3.60;;;2.70;;
1991;SDS011;997;48.448;8.924;2022-07-18T18:26:56;3.17;;;2.73;;
1991;SDS011;997;48.448;8.924;2022-07-18T18:29:22;2.30;;;2.03;;
1991;SDS011;997;48.448;8.924;2022-07-18T18:31:48;3.80;;;2.50;;
1991;SDS011;997;48.448;8.924;2022-07-18T18:34:16;2.93;;;2.20;;
1991;SDS011;997;48.448;8.924;2022-07-18T18:36:42;6.70;;;2.80;;
1991;SDS011;997;48.448;8.924;2022-07-18T18:39:20;2.17;;;1.97;;
1991;SDS011;997;48.448;8.924;2022-07-18T18:41:46;2.27;;;2.07;;
1991;SDS011;997;48.448;8.924;2022-07-18T18:44:12;2.60;;;2.40;;
1991;SDS011;997;48.448;8.924;2022-07-18T18:46:38;2.23;;;2.03;;
1991;SDS011;997;48.448;8.924;2022-07-18T18:49:03;1.93;;;1.83;;
1991;SDS011;997;48.448;8.924;2022-07-18T18:51:29;2.37;;;1.70;;
1991;SDS011;997;48.448;8.924;2022-07-18T18:53:55;2.60;;;2.40;;
1991;SDS011;997;48.448;8.924;2022-07-18T18:56:21;3.37;;;2.00;;
1991;SDS011;997;48.448;8.924;2022-07-18T18:58:46;4.53;;;1.90;;
1991;SDS011;997;48.448;8.924;2022-07-18T19:01:12;2.13;;;1.97;;
1991;SDS011;997;48.448;8.924;2022-07-18T19:03:38;2.63;;;2.00;;
1991;SDS011;997;48.448;8.924;2022-07-18T19:06:03;2.90;;;2.70;;
1991;SDS011;997;48.448;8.924;2022-07-18T19:08:29;3.10;;;2.90;;
1991;SDS011;997;48.448;8.924;2022-07-18T19:10:55;3.10;;;2.80;;
1991;SDS011;997;48.448;8.924;2022-07-18T19:13:21;2.50;;;2.30;;
1991;SDS011;997;48.448;8.924;2022-07-18T19:15:49;2.33;;;2.13;;
1991;SDS011;997;48.448;8.924;2022-07-18T19:18:19;3.43;;;2.27;;
1991;SDS011;997;48.448;8.924;2022-07-18T19:20:45;2.73;;;2.20;;
1991;SDS011;997;48.448;8.924;2022-07-18T19:23:14;2.47;;;2.23;;
1991;SDS011;997;48.448;8.924;2022-07-18T19:25:40;2.50;;;2.40;;
1991;SDS011;997;48.448;8.924;2022-07-18T19:28:07;2.27;;;2.10;;
1991;SDS011;997;48.448;8.924;2022-07-18T19:30:34;3.10;;;2.20;;
1991;SDS011;997;48.448;8.924;2022-07-18T19:33:00;3.10;;;2.40;;
1991;SDS011;997;48.448;8.924;2022-07-18T19:35:26;2.47;;;2.10;;
1991;SDS011;997;48.448;8.924;2022-07-18T19:37:52;3.07;;;2.40;;
1991;SDS011;997;48.448;8.924;2022-07-18T19:40:18;2.40;;;2.20;;
1991;SDS011;997;48.448;8.924;2022-07-18T19:42:44;3.47;;;1.90;;